sensor_id;sensor_type;location;lat;lon;timestamp;P1;durP1;ratioP1;P2;durP2;ratioP2
38089;SDS011;23904;52.322;10.232;2023-06-01T00:02:25;17.17;;;8.77;;
38089;SDS011;23904;52.322;10.232;2023-06-01T00:04:51;14.55;;;8.10;;
38089;SDS011;23904;52.322;10.232;2023-06-01T00:07:17;18.70;;;8.23;;
38089;SDS011;23904;52.322;10.232;2023-06-01T00:09:43;18.27;;;8.48;;
38089;SDS011;23904;52.322;10.232;2023-06-01T00:12:08;18.92;;;9.88;;
38089;SDS011;23904;52.322;10.232;2023-06-01T00:14:34;15.48;;;8.98;;
38089;SDS011;23904;52.322;10.232;2023-06-01T00:17:00;22.45;;;8.55;;
38089;SDS011;23904;52.322;10.232;2023-06-01T00:19:30;13.65;;;8.50;;
38089;SDS011;23904;52.322;10.232;2023-06-01T00:21:56;18.63;;;8.45;;
38089;SDS011;23904;52.322;10.232;2023-06-01T00:24:22;19.83;;;8.55;;
38089;SDS011;23904;52.322;10.232;2023-06-01T00:26:48;16.60;;;8.52;;
38089;SDS011;23904;52.322;10.232;2023-06-01T00:29:14;17.98;;;9.10;;
38089;SDS011;23904;52.322;10.232;2023-06-01T00:31:39;16.65;;;8.75;;
38089;SDS011;23904;52.322;10.232;2023-06-01T00:34:05;18.17;;;9.05;;
38089;SDS011;23904;52.322;10.232;2023-06-01T00:36:32;18.15;;;9.70;;
38089;SDS011;23904;52.322;10.232;2023-06-01T00:38:58;16.77;;;10.90;;
38089;SDS011;23904;52.322;10.232;2023-06-01T00:41:28;19.70;;;10.45;;
38089;SDS011;23904;52.322;10.232;2023-06-01T00:43:55;23.25;;;9.77;;
38089;SDS011;23904;52.322;10.232;2023-06-01T00:46:20;16.75;;;9.63;;
38089;SDS011;23904;52.322;10.232;2023-06-01T00:48:46;17.55;;;9.32;;
38089;SDS011;23904;52.322;10.232;2023-06-01T00:51:12;18.75;;;8.77;;
38089;SDS011;23904;52.322;10.232;2023-06-01T00:53:40;20.23;;;9.13;;
38089;SDS011;23904;52.322;10.232;2023-06-01T00:56:15;21.10;;;9.48;;
38089;SDS011;23904;52.322;10.232;2023-06-01T00:58:42;13.43;;;8.73;;
38089;SDS011;23904;52.322;10.232;2023-06-01T01:01:08;13.35;;;7.45;;
38089;SDS011;23904;52.322;10.232;2023-06-01T01:03:47;15.80;;;8.25;;
38089;SDS011;23904;52.322;10.232;2023-06-01T01:09:40;18.20;;;7.22;;
38089;SDS011;23904;52.322;10.232;2023-06-01T01:12:21;21.33;;;7.95;;
38089;SDS011;23904;52.322;10.232;2023-06-01T01:14:59;17.13;;;7.25;;
38089;SDS011;23904;52.322;10.232;2023-06-01T01:17:44;17.05;;;8.10;;
38089;SDS011;23904;52.322;10.232;2023-06-01T01:20:17;20.52;;;9.10;;
38089;SDS011;23904;52.322;10.232;2023-06-01T01:23:02;15.20;;;6.85;;
38089;SDS011;23904;52.322;10.232;2023-06-01T01:26:13;17.90;;;7.38;;
38089;SDS011;23904;52.322;10.232;2023-06-01T01:31:38;17.38;;;7.68;;
38089;SDS011;23904;52.322;10.232;2023-06-01T01:34:05;18.42;;;8.05;;
38089;SDS011;23904;52.322;10.232;2023-06-01T01:36:33;12.65;;;6.38;;
38089;SDS011;23904;52.322;10.232;2023-06-01T01:39:00;14.55;;;6.63;;
38089;SDS011;23904;52.322;10.232;2023-06-01T01:41:27;12.95;;;6.30;;
38089;SDS011;23904;52.322;10.232;2023-06-01T01:43:53;18.25;;;6.75;;
38089;SDS011;23904;52.322;10.232;2023-06-01T01:46:23;16.67;;;6.55;;
38089;SDS011;23904;52.322;10.232;2023-06-01T01:51:35;12.20;;;7.05;;
38089;SDS011;23904;52.322;10.232;2023-06-01T01:54:09;14.90;;;6.63;;
38089;SDS011;23904;52.322;10.232;2023-06-01T01:56:35;14.98;;;6.15;;
38089;SDS011;23904;52.322;10.232;2023-06-01T01:59:02;18.73;;;7.30;;
38089;SDS011;23904;52.322;10.232;2023-06-01T02:01:28;14.73;;;7.15;;
38089;SDS011;23904;52.322;10.232;2023-06-01T02:03:59;14.82;;;6.78;;
38089;SDS011;23904;52.322;10.232;2023-06-01T02:06:29;14.60;;;6.07;;
38089;SDS011;23904;52.322;10.232;2023-06-01T02:08:55;13.35;;;6.78;;
38089;SDS011;23904;52.322;10.232;2023-06-01T02:11:21;16.15;;;7.68;;
38089;SDS011;23904;52.322;10.232;2023-06-01T02:13:47;11.05;;;5.97;;
38089;SDS011;23904;52.322;10.232;2023-06-01T02:16:13;11.27;;;6.75;;
38089;SDS011;23904;52.322;10.232;2023-06-01T02:18:40;15.82;;;6.00;;
38089;SDS011;23904;52.322;10.232;2023-06-01T02:21:11;18.40;;;8.82;;
38089;SDS011;23904;52.322;10.232;2023-06-01T02:23:38;19.83;;;6.80;;
38089;SDS011;23904;52.322;10.232;2023-06-01T02:26:07;17.70;;;6.70;;
38089;SDS011;23904;52.322;10.232;2023-06-01T02:28:36;15.45;;;7.22;;
38089;SDS011;23904;52.322;10.232;2023-06-01T02:31:03;14.02;;;6.63;;
38089;SDS011;23904;52.322;10.232;2023-06-01T02:33:30;14.68;;;6.50;;
38089;SDS011;23904;52.322;10.232;2023-06-01T02:35:55;18.95;;;7.13;;
38089;SDS011;23904;52.322;10.232;2023-06-01T02:38:21;17.77;;;6.85;;
38089;SDS011;23904;52.322;10.232;2023-06-01T02:40:47;14.32;;;7.63;;
38089;SDS011;23904;52.322;10.232;2023-06-01T02:43:12;18.95;;;7.10;;
38089;SDS011;23904;52.322;10.232;2023-06-01T02:45:38;18.02;;;7.47;;
38089;SDS011;23904;52.322;10.232;2023-06-01T02:48:03;15.18;;;6.97;;
38089;SDS011;23904;52.322;10.232;2023-06-01T02:50:29;19.95;;;7.78;;
38089;SDS011;23904;52.322;10.232;2023-06-01T02:52:54;19.13;;;6.90;;
38089;SDS011;23904;52.322;10.232;2023-06-01T02:55:20;16.13;;;7.10;;
38089;SDS011;23904;52.322;10.232;2023-06-01T02:57:46;20.23;;;7.68;;
38089;SDS011;23904;52.322;10.232;2023-06-01T03:00:11;13.88;;;7.22;;
38089;SDS011;23904;52.322;10.232;2023-06-01T03:02:41;16.77;;;7.43;;
38089;SDS011;23904;52.322;10.232;2023-06-01T03:05:07;13.40;;;7.88;;
38089;SDS011;23904;52.322;10.232;2023-06-01T03:07:34;17.73;;;7.78;;
38089;SDS011;23904;52.322;10.232;2023-06-01T03:09:59;19.58;;;7.85;;
38089;SDS011;23904;52.322;10.232;2023-06-01T03:12:25;13.02;;;7.55;;
38089;SDS011;23904;52.322;10.232;2023-06-01T03:14:50;17.05;;;7.90;;
38089;SDS011;23904;52.322;10.232;2023-06-01T03:17:16;18.77;;;8.25;;
38089;SDS011;23904;52.322;10.232;2023-06-01T03:19:41;22.75;;;9.02;;
38089;SDS011;23904;52.322;10.232;2023-06-01T03:22:07;12.27;;;7.25;;
38089;SDS011;23904;52.322;10.232;2023-06-01T03:24:33;13.27;;;7.07;;
38089;SDS011;23904;52.322;10.232;2023-06-01T03:26:59;14.88;;;7.63;;
38089;SDS011;23904;52.322;10.232;2023-06-01T03:29:25;17.38;;;7.70;;
38089;SDS011;23904;52.322;10.232;2023-06-01T03:31:51;18.92;;;6.90;;
38089;SDS011;23904;52.322;10.232;2023-06-01T03:34:17;18.48;;;7.72;;
38089;SDS011;23904;52.322;10.232;2023-06-01T03:36:42;19.90;;;8.00;;
38089;SDS011;23904;52.322;10.232;2023-06-01T03:39:12;24.17;;;7.53;;
38089;SDS011;23904;52.322;10.232;2023-06-01T03:41:41;22.30;;;8.65;;
38089;SDS011;23904;52.322;10.232;2023-06-01T03:44:08;15.30;;;7.72;;
38089;SDS011;23904;52.322;10.232;2023-06-01T03:46:35;16.08;;;8.13;;
38089;SDS011;23904;52.322;10.232;2023-06-01T03:49:00;20.55;;;8.90;;
38089;SDS011;23904;52.322;10.232;2023-06-01T03:51:26;15.20;;;8.27;;
38089;SDS011;23904;52.322;10.232;2023-06-01T03:53:52;17.65;;;8.15;;
38089;SDS011;23904;52.322;10.232;2023-06-01T03:56:17;14.75;;;7.53;;
38089;SDS011;23904;52.322;10.232;2023-06-01T03:58:44;21.83;;;8.70;;
38089;SDS011;23904;52.322;10.232;2023-06-01T04:01:10;16.10;;;7.97;;
38089;SDS011;23904;52.322;10.232;2023-06-01T04:03:37;16.88;;;8.65;;
38089;SDS011;23904;52.322;10.232;2023-06-01T04:06:03;20.60;;;8.52;;
38089;SDS011;23904;52.322;10.232;2023-06-01T04:08:36;17.30;;;7.93;;
38089;SDS011;23904;52.322;10.232;2023-06-01T04:11:12;17.10;;;7.85;;
38089;SDS011;23904;52.322;10.232;2023-06-01T04:13:38;17.90;;;9.35;;
38089;SDS011;23904;52.322;10.232;2023-06-01T04:16:04;16.02;;;8.20;;
38089;SDS011;23904;52.322;10.232;2023-06-01T04:18:30;20.52;;;8.45;;
38089;SDS011;23904;52.322;10.232;2023-06-01T04:20:55;20.17;;;9.02;;
38089;SDS011;23904;52.322;10.232;2023-06-01T04:23:21;20.00;;;8.00;;
38089;SDS011;23904;52.322;10.232;2023-06-01T04:25:47;18.73;;;8.90;;
38089;SDS011;23904;52.322;10.232;2023-06-01T04:28:15;18.52;;;8.88;;
38089;SDS011;23904;52.322;10.232;2023-06-01T04:30:41;19.58;;;8.60;;
38089;SDS011;23904;52.322;10.232;2023-06-01T04:33:09;19.65;;;8.45;;
38089;SDS011;23904;52.322;10.232;2023-06-01T04:35:35;14.07;;;8.60;;
38089;SDS011;23904;52.322;10.232;2023-06-01T04:38:03;20.65;;;7.68;;
38089;SDS011;23904;52.322;10.232;2023-06-01T04:40:29;21.52;;;7.93;;
38089;SDS011;23904;52.322;10.232;2023-06-01T04:42:55;17.38;;;8.40;;
38089;SDS011;23904;52.322;10.232;2023-06-01T04:45:21;17.85;;;8.55;;
38089;SDS011;23904;52.322;10.232;2023-06-01T04:47:50;15.77;;;9.30;;
38089;SDS011;23904;52.322;10.232;2023-06-01T04:50:16;15.90;;;8.07;;
38089;SDS011;23904;52.322;10.232;2023-06-01T04:52:42;16.77;;;8.35;;
38089;SDS011;23904;52.322;10.232;2023-06-01T04:55:09;17.33;;;8.70;;
38089;SDS011;23904;52.322;10.232;2023-06-01T04:57:38;16.20;;;8.60;;
38089;SDS011;23904;52.322;10.232;2023-06-01T05:00:04;17.23;;;8.32;;
38089;SDS011;23904;52.322;10.232;2023-06-01T05:02:36;20.40;;;8.30;;
38089;SDS011;23904;52.322;10.232;2023-06-01T05:05:03;21.55;;;8.38;;
38089;SDS011;23904;52.322;10.232;2023-06-01T05:07:30;14.05;;;8.10;;
38089;SDS011;23904;52.322;10.232;2023-06-01T05:09:56;14.68;;;7.28;;
38089;SDS011;23904;52.322;10.232;2023-06-01T05:12:22;15.45;;;7.72;;
38089;SDS011;23904;52.322;10.232;2023-06-01T05:14:47;16.40;;;7.95;;
38089;SDS011;23904;52.322;10.232;2023-06-01T05:17:13;16.17;;;7.45;;
38089;SDS011;23904;52.322;10.232;2023-06-01T05:19:38;18.77;;;8.00;;
38089;SDS011;23904;52.322;10.232;2023-06-01T05:22:04;15.65;;;7.80;;
38089;SDS011;23904;52.322;10.232;2023-06-01T05:24:30;23.52;;;8.07;;
38089;SDS011;23904;52.322;10.232;2023-06-01T05:26:55;19.25;;;8.52;;
38089;SDS011;23904;52.322;10.232;2023-06-01T05:29:21;15.90;;;8.18;;
38089;SDS011;23904;52.322;10.232;2023-06-01T05:31:47;16.42;;;8.35;;
38089;SDS011;23904;52.322;10.232;2023-06-01T05:34:15;15.98;;;7.95;;
38089;SDS011;23904;52.322;10.232;2023-06-01T05:36:40;14.07;;;7.82;;
38089;SDS011;23904;52.322;10.232;2023-06-01T05:39:06;13.57;;;7.70;;
38089;SDS011;23904;52.322;10.232;2023-06-01T05:41:31;13.77;;;7.57;;
38089;SDS011;23904;52.322;10.232;2023-06-01T05:43:57;12.88;;;6.50;;
38089;SDS011;23904;52.322;10.232;2023-06-01T05:46:22;13.68;;;6.70;;
38089;SDS011;23904;52.322;10.232;2023-06-01T05:48:49;13.73;;;6.60;;
38089;SDS011;23904;52.322;10.232;2023-06-01T05:51:16;19.45;;;7.15;;
38089;SDS011;23904;52.322;10.232;2023-06-01T05:53:42;14.70;;;7.82;;
38089;SDS011;23904;52.322;10.232;2023-06-01T05:56:08;17.52;;;6.47;;
38089;SDS011;23904;52.322;10.232;2023-06-01T05:58:33;9.73;;;4.95;;
38089;SDS011;23904;52.322;10.232;2023-06-01T06:00:59;9.05;;;4.65;;
38089;SDS011;23904;52.322;10.232;2023-06-01T06:03:24;10.85;;;4.40;;
38089;SDS011;23904;52.322;10.232;2023-06-01T06:05:50;10.90;;;4.68;;
38089;SDS011;23904;52.322;10.232;2023-06-01T06:08:15;11.23;;;5.05;;
38089;SDS011;23904;52.322;10.232;2023-06-01T06:10:41;6.65;;;4.55;;
38089;SDS011;23904;52.322;10.232;2023-06-01T06:13:07;9.45;;;4.95;;
38089;SDS011;23904;52.322;10.232;2023-06-01T06:15:32;15.20;;;5.93;;
38089;SDS011;23904;52.322;10.232;2023-06-01T06:17:58;10.77;;;5.50;;
38089;SDS011;23904;52.322;10.232;2023-06-01T06:20:23;11.00;;;5.07;;
38089;SDS011;23904;52.322;10.232;2023-06-01T06:22:50;9.15;;;4.93;;
38089;SDS011;23904;52.322;10.232;2023-06-01T06:25:16;10.50;;;4.75;;
38089;SDS011;23904;52.322;10.232;2023-06-01T06:27:42;14.52;;;4.75;;
38089;SDS011;23904;52.322;10.232;2023-06-01T06:30:07;12.63;;;4.38;;
38089;SDS011;23904;52.322;10.232;2023-06-01T06:32:34;9.57;;;4.60;;
38089;SDS011;23904;52.322;10.232;2023-06-01T06:35:00;10.77;;;5.32;;
38089;SDS011;23904;52.322;10.232;2023-06-01T06:37:25;12.52;;;5.20;;
38089;SDS011;23904;52.322;10.232;2023-06-01T06:39:53;13.35;;;5.45;;
38089;SDS011;23904;52.322;10.232;2023-06-01T06:42:18;13.95;;;5.63;;
38089;SDS011;23904;52.322;10.232;2023-06-01T06:44:44;11.02;;;5.10;;
38089;SDS011;23904;52.322;10.232;2023-06-01T06:47:09;9.43;;;5.22;;
38089;SDS011;23904;52.322;10.232;2023-06-01T06:49:39;11.32;;;5.95;;
38089;SDS011;23904;52.322;10.232;2023-06-01T06:52:05;14.40;;;5.95;;
38089;SDS011;23904;52.322;10.232;2023-06-01T06:54:31;14.25;;;5.70;;
38089;SDS011;23904;52.322;10.232;2023-06-01T06:56:56;11.75;;;5.10;;
38089;SDS011;23904;52.322;10.232;2023-06-01T06:59:22;16.17;;;5.38;;
38089;SDS011;23904;52.322;10.232;2023-06-01T07:01:47;11.60;;;4.88;;
38089;SDS011;23904;52.322;10.232;2023-06-01T07:04:13;13.40;;;5.45;;
38089;SDS011;23904;52.322;10.232;2023-06-01T07:06:38;10.93;;;4.97;;
38089;SDS011;23904;52.322;10.232;2023-06-01T07:09:04;14.45;;;6.85;;
38089;SDS011;23904;52.322;10.232;2023-06-01T07:11:30;14.25;;;6.53;;
38089;SDS011;23904;52.322;10.232;2023-06-01T07:13:56;11.57;;;6.18;;
38089;SDS011;23904;52.322;10.232;2023-06-01T07:16:23;14.57;;;6.20;;
38089;SDS011;23904;52.322;10.232;2023-06-01T07:18:54;15.65;;;6.50;;
38089;SDS011;23904;52.322;10.232;2023-06-01T07:21:21;18.42;;;6.35;;
38089;SDS011;23904;52.322;10.232;2023-06-01T07:23:46;13.98;;;7.03;;
38089;SDS011;23904;52.322;10.232;2023-06-01T07:26:12;12.07;;;5.15;;
38089;SDS011;23904;52.322;10.232;2023-06-01T07:28:37;15.38;;;6.00;;
38089;SDS011;23904;52.322;10.232;2023-06-01T07:31:03;16.23;;;6.47;;
38089;SDS011;23904;52.322;10.232;2023-06-01T07:33:29;16.25;;;5.97;;
38089;SDS011;23904;52.322;10.232;2023-06-01T07:35:55;11.32;;;6.53;;
38089;SDS011;23904;52.322;10.232;2023-06-01T07:38:23;14.02;;;5.93;;
38089;SDS011;23904;52.322;10.232;2023-06-01T07:40:49;13.63;;;6.72;;
38089;SDS011;23904;52.322;10.232;2023-06-01T07:43:16;10.18;;;5.90;;
38089;SDS011;23904;52.322;10.232;2023-06-01T07:48:52;11.95;;;6.13;;
38089;SDS011;23904;52.322;10.232;2023-06-01T07:51:17;18.75;;;6.85;;
38089;SDS011;23904;52.322;10.232;2023-06-01T07:53:43;15.20;;;7.50;;
38089;SDS011;23904;52.322;10.232;2023-06-01T07:56:09;17.27;;;6.75;;
38089;SDS011;23904;52.322;10.232;2023-06-01T07:58:35;20.05;;;6.53;;
38089;SDS011;23904;52.322;10.232;2023-06-01T08:01:01;13.38;;;6.68;;
38089;SDS011;23904;52.322;10.232;2023-06-01T08:03:28;14.82;;;6.93;;
38089;SDS011;23904;52.322;10.232;2023-06-01T08:05:53;12.48;;;5.88;;
38089;SDS011;23904;52.322;10.232;2023-06-01T08:08:24;15.50;;;6.45;;
38089;SDS011;23904;52.322;10.232;2023-06-01T08:10:50;17.80;;;6.10;;
38089;SDS011;23904;52.322;10.232;2023-06-01T08:13:16;11.25;;;6.15;;
38089;SDS011;23904;52.322;10.232;2023-06-01T08:15:43;14.43;;;6.30;;
38089;SDS011;23904;52.322;10.232;2023-06-01T08:18:12;11.55;;;6.07;;
38089;SDS011;23904;52.322;10.232;2023-06-01T08:20:40;10.82;;;5.82;;
38089;SDS011;23904;52.322;10.232;2023-06-01T08:23:07;11.50;;;5.97;;
38089;SDS011;23904;52.322;10.232;2023-06-01T08:25:33;13.05;;;6.45;;
38089;SDS011;23904;52.322;10.232;2023-06-01T08:27:58;16.58;;;6.63;;
38089;SDS011;23904;52.322;10.232;2023-06-01T08:30:24;13.98;;;6.68;;
38089;SDS011;23904;52.322;10.232;2023-06-01T08:32:50;17.75;;;7.00;;
38089;SDS011;23904;52.322;10.232;2023-06-01T08:35:16;16.90;;;7.28;;
38089;SDS011;23904;52.322;10.232;2023-06-01T08:37:43;15.65;;;7.25;;
38089;SDS011;23904;52.322;10.232;2023-06-01T08:40:09;13.57;;;6.53;;
38089;SDS011;23904;52.322;10.232;2023-06-01T08:45:10;14.07;;;7.45;;
38089;SDS011;23904;52.322;10.232;2023-06-01T08:47:38;15.05;;;6.65;;
38089;SDS011;23904;52.322;10.232;2023-06-01T08:50:05;19.30;;;7.05;;
38089;SDS011;23904;52.322;10.232;2023-06-01T08:52:34;23.83;;;7.65;;
38089;SDS011;23904;52.322;10.232;2023-06-01T08:55:03;16.95;;;7.40;;
38089;SDS011;23904;52.322;10.232;2023-06-01T08:57:30;15.10;;;7.50;;
38089;SDS011;23904;52.322;10.232;2023-06-01T08:59:56;18.15;;;7.63;;
38089;SDS011;23904;52.322;10.232;2023-06-01T09:02:23;18.67;;;6.75;;
38089;SDS011;23904;52.322;10.232;2023-06-01T09:04:50;15.90;;;7.50;;
38089;SDS011;23904;52.322;10.232;2023-06-01T09:07:17;15.57;;;7.25;;
38089;SDS011;23904;52.322;10.232;2023-06-01T09:09:43;21.38;;;7.43;;
38089;SDS011;23904;52.322;10.232;2023-06-01T09:12:18;12.52;;;6.00;;
38089;SDS011;23904;52.322;10.232;2023-06-01T09:17:38;14.85;;;6.80;;
38089;SDS011;23904;52.322;10.232;2023-06-01T09:20:05;13.13;;;6.45;;
38089;SDS011;23904;52.322;10.232;2023-06-01T09:22:41;16.83;;;7.40;;
38089;SDS011;23904;52.322;10.232;2023-06-01T09:25:11;14.23;;;6.93;;
38089;SDS011;23904;52.322;10.232;2023-06-01T09:30:16;20.70;;;7.80;;
38089;SDS011;23904;52.322;10.232;2023-06-01T09:32:45;17.67;;;7.03;;
38089;SDS011;23904;52.322;10.232;2023-06-01T09:38:23;17.83;;;7.18;;
38089;SDS011;23904;52.322;10.232;2023-06-01T09:41:00;14.52;;;7.05;;
38089;SDS011;23904;52.322;10.232;2023-06-01T09:43:28;17.48;;;7.13;;
38089;SDS011;23904;52.322;10.232;2023-06-01T09:46:08;16.80;;;7.22;;
38089;SDS011;23904;52.322;10.232;2023-06-01T09:48:38;17.13;;;7.40;;
38089;SDS011;23904;52.322;10.232;2023-06-01T09:51:05;14.13;;;6.35;;
38089;SDS011;23904;52.322;10.232;2023-06-01T09:53:46;11.32;;;6.20;;
38089;SDS011;23904;52.322;10.232;2023-06-01T09:56:12;18.25;;;6.93;;
38089;SDS011;23904;52.322;10.232;2023-06-01T09:58:37;13.90;;;6.72;;
38089;SDS011;23904;52.322;10.232;2023-06-01T10:01:05;11.88;;;6.35;;
38089;SDS011;23904;52.322;10.232;2023-06-01T10:03:35;16.02;;;6.47;;
38089;SDS011;23904;52.322;10.232;2023-06-01T10:06:06;13.05;;;6.45;;
38089;SDS011;23904;52.322;10.232;2023-06-01T10:08:36;9.40;;;5.97;;
38089;SDS011;23904;52.322;10.232;2023-06-01T10:11:02;12.77;;;5.50;;
38089;SDS011;23904;52.322;10.232;2023-06-01T10:13:28;12.27;;;6.07;;
38089;SDS011;23904;52.322;10.232;2023-06-01T10:15:56;12.00;;;6.18;;
38089;SDS011;23904;52.322;10.232;2023-06-01T10:18:21;9.32;;;6.13;;
38089;SDS011;23904;52.322;10.232;2023-06-01T10:20:47;13.23;;;7.18;;
38089;SDS011;23904;52.322;10.232;2023-06-01T10:23:13;14.25;;;6.97;;
38089;SDS011;23904;52.322;10.232;2023-06-01T10:25:40;15.32;;;7.25;;
38089;SDS011;23904;52.322;10.232;2023-06-01T10:28:10;19.55;;;8.35;;
38089;SDS011;23904;52.322;10.232;2023-06-01T10:30:37;15.90;;;7.93;;
38089;SDS011;23904;52.322;10.232;2023-06-01T10:33:02;16.55;;;8.02;;
38089;SDS011;23904;52.322;10.232;2023-06-01T10:40:32;11.55;;;6.35;;
38089;SDS011;23904;52.322;10.232;2023-06-01T10:43:01;12.13;;;6.40;;
38089;SDS011;23904;52.322;10.232;2023-06-01T10:48:00;16.13;;;6.53;;
38089;SDS011;23904;52.322;10.232;2023-06-01T10:50:27;14.52;;;6.63;;
38089;SDS011;23904;52.322;10.232;2023-06-01T10:52:53;8.00;;;4.90;;
38089;SDS011;23904;52.322;10.232;2023-06-01T10:55:21;9.63;;;4.75;;
38089;SDS011;23904;52.322;10.232;2023-06-01T10:57:49;9.80;;;4.88;;
38089;SDS011;23904;52.322;10.232;2023-06-01T11:02:46;7.70;;;4.18;;
38089;SDS011;23904;52.322;10.232;2023-06-01T11:05:37;9.52;;;4.28;;
38089;SDS011;23904;52.322;10.232;2023-06-01T11:10:54;10.95;;;3.83;;
38089;SDS011;23904;52.322;10.232;2023-06-01T11:13:29;5.40;;;3.65;;
38089;SDS011;23904;52.322;10.232;2023-06-01T11:21:22;14.32;;;6.22;;
38089;SDS011;23904;52.322;10.232;2023-06-01T11:24:06;8.32;;;4.03;;
38089;SDS011;23904;52.322;10.232;2023-06-01T11:26:40;8.43;;;3.85;;
38089;SDS011;23904;52.322;10.232;2023-06-01T11:31:42;8.23;;;4.23;;
38089;SDS011;23904;52.322;10.232;2023-06-01T11:34:11;5.55;;;3.83;;
38089;SDS011;23904;52.322;10.232;2023-06-01T11:36:48;7.55;;;4.10;;
38089;SDS011;23904;52.322;10.232;2023-06-01T11:39:19;7.60;;;3.97;;
38089;SDS011;23904;52.322;10.232;2023-06-01T11:42:02;9.88;;;3.78;;
38089;SDS011;23904;52.322;10.232;2023-06-01T11:44:42;5.32;;;3.35;;
38089;SDS011;23904;52.322;10.232;2023-06-01T11:47:11;5.03;;;3.63;;
38089;SDS011;23904;52.322;10.232;2023-06-01T11:49:47;6.30;;;3.75;;
38089;SDS011;23904;52.322;10.232;2023-06-01T11:52:15;7.50;;;3.75;;
38089;SDS011;23904;52.322;10.232;2023-06-01T11:54:42;8.05;;;4.10;;
38089;SDS011;23904;52.322;10.232;2023-06-01T11:57:07;10.05;;;4.00;;
38089;SDS011;23904;52.322;10.232;2023-06-01T11:59:38;5.43;;;3.80;;
38089;SDS011;23904;52.322;10.232;2023-06-01T12:04:58;9.00;;;4.05;;
38089;SDS011;23904;52.322;10.232;2023-06-01T12:07:52;7.00;;;4.18;;
38089;SDS011;23904;52.322;10.232;2023-06-01T12:10:19;7.63;;;4.10;;
38089;SDS011;23904;52.322;10.232;2023-06-01T12:12:46;9.88;;;3.55;;
38089;SDS011;23904;52.322;10.232;2023-06-01T12:15:16;8.77;;;3.60;;
38089;SDS011;23904;52.322;10.232;2023-06-01T12:17:50;6.05;;;3.03;;
38089;SDS011;23904;52.322;10.232;2023-06-01T12:20:31;5.50;;;2.88;;
38089;SDS011;23904;52.322;10.232;2023-06-01T12:23:11;4.72;;;2.88;;
38089;SDS011;23904;52.322;10.232;2023-06-01T12:25:53;6.45;;;2.63;;
38089;SDS011;23904;52.322;10.232;2023-06-01T12:28:21;4.25;;;2.88;;
38089;SDS011;23904;52.322;10.232;2023-06-01T12:30:49;4.43;;;3.03;;
38089;SDS011;23904;52.322;10.232;2023-06-01T12:33:33;5.32;;;3.20;;
38089;SDS011;23904;52.322;10.232;2023-06-01T12:36:05;6.32;;;3.60;;
38089;SDS011;23904;52.322;10.232;2023-06-01T12:38:34;6.13;;;3.83;;
38089;SDS011;23904;52.322;10.232;2023-06-01T12:41:04;5.85;;;3.53;;
38089;SDS011;23904;52.322;10.232;2023-06-01T12:43:36;9.95;;;4.13;;
38089;SDS011;23904;52.322;10.232;2023-06-01T12:46:24;11.00;;;3.88;;
38089;SDS011;23904;52.322;10.232;2023-06-01T12:49:14;7.85;;;4.20;;
38089;SDS011;23904;52.322;10.232;2023-06-01T12:51:44;6.13;;;3.88;;
38089;SDS011;23904;52.322;10.232;2023-06-01T12:54:10;4.60;;;3.17;;
38089;SDS011;23904;52.322;10.232;2023-06-01T12:56:36;6.63;;;3.90;;
38089;SDS011;23904;52.322;10.232;2023-06-01T12:59:02;8.43;;;3.80;;
38089;SDS011;23904;52.322;10.232;2023-06-01T13:01:28;5.90;;;3.83;;
38089;SDS011;23904;52.322;10.232;2023-06-01T13:03:53;4.80;;;3.13;;
38089;SDS011;23904;52.322;10.232;2023-06-01T13:06:20;5.28;;;3.42;;
38089;SDS011;23904;52.322;10.232;2023-06-01T13:08:46;6.43;;;3.80;;
38089;SDS011;23904;52.322;10.232;2023-06-01T13:11:12;5.55;;;3.60;;
38089;SDS011;23904;52.322;10.232;2023-06-01T13:13:37;6.47;;;3.60;;
38089;SDS011;23904;52.322;10.232;2023-06-01T13:16:03;5.50;;;3.10;;
38089;SDS011;23904;52.322;10.232;2023-06-01T13:18:29;5.68;;;3.53;;
38089;SDS011;23904;52.322;10.232;2023-06-01T13:20:55;7.38;;;3.28;;
38089;SDS011;23904;52.322;10.232;2023-06-01T13:23:21;9.13;;;4.20;;
38089;SDS011;23904;52.322;10.232;2023-06-01T13:25:46;7.38;;;3.92;;
38089;SDS011;23904;52.322;10.232;2023-06-01T13:28:12;5.70;;;3.67;;
38089;SDS011;23904;52.322;10.232;2023-06-01T13:30:38;8.70;;;3.63;;
38089;SDS011;23904;52.322;10.232;2023-06-01T13:33:04;7.80;;;4.82;;
38089;SDS011;23904;52.322;10.232;2023-06-01T13:35:31;7.93;;;4.00;;
38089;SDS011;23904;52.322;10.232;2023-06-01T13:37:57;9.57;;;4.22;;
38089;SDS011;23904;52.322;10.232;2023-06-01T13:40:23;10.85;;;4.13;;
38089;SDS011;23904;52.322;10.232;2023-06-01T13:42:50;8.35;;;4.43;;
38089;SDS011;23904;52.322;10.232;2023-06-01T13:45:17;6.18;;;3.47;;
38089;SDS011;23904;52.322;10.232;2023-06-01T13:47:43;8.80;;;3.97;;
38089;SDS011;23904;52.322;10.232;2023-06-01T13:50:09;7.05;;;3.92;;
38089;SDS011;23904;52.322;10.232;2023-06-01T13:52:37;7.07;;;4.35;;
38089;SDS011;23904;52.322;10.232;2023-06-01T13:55:03;9.13;;;4.82;;
38089;SDS011;23904;52.322;10.232;2023-06-01T13:57:29;8.05;;;4.55;;
38089;SDS011;23904;52.322;10.232;2023-06-01T13:59:55;8.48;;;4.32;;
38089;SDS011;23904;52.322;10.232;2023-06-01T14:02:20;9.50;;;3.95;;
38089;SDS011;23904;52.322;10.232;2023-06-01T14:04:46;9.43;;;4.18;;
38089;SDS011;23904;52.322;10.232;2023-06-01T14:07:11;8.63;;;4.30;;
38089;SDS011;23904;52.322;10.232;2023-06-01T14:09:37;8.75;;;3.72;;
38089;SDS011;23904;52.322;10.232;2023-06-01T14:12:02;6.93;;;3.58;;
38089;SDS011;23904;52.322;10.232;2023-06-01T14:14:28;12.60;;;4.00;;
38089;SDS011;23904;52.322;10.232;2023-06-01T14:16:54;11.02;;;3.75;;
38089;SDS011;23904;52.322;10.232;2023-06-01T14:19:19;12.73;;;4.55;;
38089;SDS011;23904;52.322;10.232;2023-06-01T14:21:45;9.23;;;4.32;;
38089;SDS011;23904;52.322;10.232;2023-06-01T14:24:10;9.95;;;4.70;;
38089;SDS011;23904;52.322;10.232;2023-06-01T14:26:36;8.40;;;4.68;;
38089;SDS011;23904;52.322;10.232;2023-06-01T14:29:01;9.43;;;4.75;;
38089;SDS011;23904;52.322;10.232;2023-06-01T14:31:27;9.45;;;4.45;;
38089;SDS011;23904;52.322;10.232;2023-06-01T14:33:53;8.43;;;4.97;;
38089;SDS011;23904;52.322;10.232;2023-06-01T14:36:18;9.88;;;4.25;;
38089;SDS011;23904;52.322;10.232;2023-06-01T14:38:45;8.07;;;4.35;;
38089;SDS011;23904;52.322;10.232;2023-06-01T14:41:10;7.68;;;4.20;;
38089;SDS011;23904;52.322;10.232;2023-06-01T14:43:36;7.05;;;3.30;;
38089;SDS011;23904;52.322;10.232;2023-06-01T14:46:03;8.75;;;3.83;;
38089;SDS011;23904;52.322;10.232;2023-06-01T14:48:29;8.45;;;3.67;;
38089;SDS011;23904;52.322;10.232;2023-06-01T14:50:55;9.20;;;3.67;;
38089;SDS011;23904;52.322;10.232;2023-06-01T14:53:21;6.28;;;3.47;;
38089;SDS011;23904;52.322;10.232;2023-06-01T14:55:46;7.68;;;3.55;;
38089;SDS011;23904;52.322;10.232;2023-06-01T14:58:12;10.05;;;3.40;;
38089;SDS011;23904;52.322;10.232;2023-06-01T15:00:37;9.02;;;3.85;;
38089;SDS011;23904;52.322;10.232;2023-06-01T15:03:03;10.93;;;3.25;;
38089;SDS011;23904;52.322;10.232;2023-06-01T15:05:29;11.13;;;3.42;;
38089;SDS011;23904;52.322;10.232;2023-06-01T15:07:55;10.43;;;3.58;;
38089;SDS011;23904;52.322;10.232;2023-06-01T15:10:21;7.85;;;3.65;;
38089;SDS011;23904;52.322;10.232;2023-06-01T15:12:47;13.38;;;3.35;;
38089;SDS011;23904;52.322;10.232;2023-06-01T15:15:12;10.55;;;3.60;;
38089;SDS011;23904;52.322;10.232;2023-06-01T15:17:38;12.35;;;3.78;;